createdAt,value
2018-09-29T00:00:56.838Z,92128.42
2018-09-29T00:03:27.171Z,92133.56
2018-09-29T00:05:57.862Z,92138.23
2018-09-29T00:08:28.196Z,92134.27
2018-09-29T00:10:58.441Z,92130.19
2018-09-29T00:13:28.697Z,92134.45
2018-09-29T00:15:59.059Z,92131.81
2018-09-29T00:18:29.583Z,92132.06
2018-09-29T00:20:59.907Z,92139.25
2018-09-29T00:23:30.199Z,92138.64
2018-09-29T00:26:00.467Z,92131.97
2018-09-29T00:28:30.712Z,92136.23
2018-09-29T00:31:01.104Z,92140.88
2018-09-29T00:33:31.351Z,92134.55
2018-09-29T00:36:01.598Z,92136.30
2018-09-29T00:38:31.889Z,92129.53
2018-09-29T00:41:02.149Z,92121.30
2018-09-29T00:43:32.929Z,92117.68
2018-09-29T00:46:03.756Z,92119.64
2018-09-29T00:48:34.208Z,92113.34
2018-09-29T00:51:04.930Z,92114.77
2018-09-29T00:53:35.351Z,92110.64
2018-09-29T00:56:05.595Z,92108.03
2018-09-29T00:58:35.840Z,92113.02
2018-09-29T01:01:06.640Z,92113.41
2018-09-29T01:03:36.902Z,92109.41
2018-09-29T01:06:07.187Z,92106.45
2018-09-29T01:08:37.663Z,92111.24
2018-09-29T01:11:07.977Z,92096.26
2018-09-29T01:13:38.245Z,92094.81
2018-09-29T01:16:08.671Z,92102.05
2018-09-29T01:18:38.941Z,92103.25
2018-09-29T01:21:10.823Z,92105.39
2018-09-29T01:23:41.073Z,92100.72
2018-09-29T01:26:11.424Z,92110.83
2018-09-29T01:28:41.771Z,92105.93
2018-09-29T01:31:12.046Z,92104.56
2018-09-29T01:33:42.288Z,92107.67
2018-09-29T01:36:12.796Z,92108.78
2018-09-29T01:38:43.049Z,92106.64
2018-09-29T01:41:13.297Z,92106.48
2018-09-29T01:43:43.628Z,92104.44
2018-09-29T01:46:13.872Z,92092.80
2018-09-29T01:48:44.121Z,92098.02
2018-09-29T01:51:14.511Z,92096.08
2018-09-29T01:53:44.756Z,92097.43
2018-09-29T01:56:15.076Z,92093.78
2018-09-29T01:58:45.355Z,92090.61
2018-09-29T02:01:15.806Z,92086.07
2018-09-29T02:03:46.151Z,92087.13
2018-09-29T02:06:16.404Z,92085.23
2018-09-29T02:08:46.673Z,92082.20
2018-09-29T02:11:16.969Z,92077.61
2018-09-29T02:13:47.227Z,92071.38
2018-09-29T02:16:17.509Z,92073.66
2018-09-29T02:18:47.810Z,92074.28
2018-09-29T02:21:18.082Z,92082.86
2018-09-29T02:23:48.436Z,92079.08
2018-09-29T02:26:19.272Z,92084.19
2018-09-29T02:28:49.600Z,92089.95
2018-09-29T02:31:20.029Z,92084.27
2018-09-29T02:33:50.305Z,92087.25
2018-09-29T02:36:20.595Z,92084.63
2018-09-29T02:38:50.842Z,92087.94
2018-09-29T02:41:21.075Z,92085.38
2018-09-29T02:43:51.424Z,92077.72
2018-09-29T02:46:21.677Z,92080.27
2018-09-29T02:48:51.929Z,92078.55
2018-09-29T02:51:24.960Z,92078.86
2018-09-29T02:53:55.229Z,92071.75
2018-09-29T02:56:25.519Z,92065.11
2018-09-29T02:58:55.759Z,92061.64
2018-09-29T03:01:26.073Z,92063.20
2018-09-29T03:03:56.462Z,92058.02
2018-09-29T03:06:26.944Z,92061.88
2018-09-29T03:08:57.209Z,92063.03
2018-09-29T03:11:27.481Z,92065.11
2018-09-29T03:13:57.743Z,92063.16
2018-09-29T03:16:27.981Z,92061.04
2018-09-29T03:18:57.416Z,92064.09
2018-09-29T03:21:26.572Z,92066.98
2018-09-29T03:23:55.756Z,92063.07
2018-09-29T03:26:24.996Z,92064.86
2018-09-29T03:28:54.143Z,92063.70
2018-09-29T03:31:23.342Z,92057.39
2018-09-29T03:33:52.754Z,92059.06
2018-09-29T03:36:21.920Z,92050.19
2018-09-29T03:38:51.093Z,92046.61
2018-09-29T03:41:20.387Z,92045.31
2018-09-29T03:43:49.561Z,92048.61
2018-09-29T03:46:19.931Z,92050.81
2018-09-29T03:48:53.035Z,92047.38
2018-09-29T03:51:23.288Z,92051.30
2018-09-29T03:53:53.647Z,92044.91
2018-09-29T03:56:24.008Z,92041.83
2018-09-29T03:58:55.102Z,92037.63
2018-09-29T04:01:25.736Z,92040.99
2018-09-29T04:03:55.992Z,92044.23
2018-09-29T04:06:26.284Z,92043.91
2018-09-29T04:08:56.556Z,92044.75
2018-09-29T04:11:26.833Z,92045.55
2018-09-29T04:13:57.218Z,92053.49
2018-09-29T04:16:27.697Z,92072.58
2018-09-29T04:18:57.958Z,92074.63
2018-09-29T04:21:32.343Z,92073.96
2018-09-29T04:24:02.603Z,92066.82
2018-09-29T04:26:32.877Z,92067.23
2018-09-29T04:29:03.261Z,92069.06
2018-09-29T04:31:33.502Z,92073.44
2018-09-29T04:34:03.759Z,92072.00
2018-09-29T04:36:34.029Z,92073.34
2018-09-29T04:39:05.501Z,92076.75
2018-09-29T04:41:35.871Z,92075.16
2018-09-29T04:44:06.370Z,92076.13
2018-09-29T04:46:37.073Z,92077.15
2018-09-29T04:49:07.571Z,92079.84
2018-09-29T04:51:38.086Z,92089.58
2018-09-29T04:54:08.471Z,92079.46
2018-09-29T04:56:38.840Z,92086.61
2018-09-29T04:59:09.169Z,92082.95
2018-09-29T05:01:41.991Z,92080.53
2018-09-29T05:04:12.381Z,92075.69
2018-09-29T05:06:42.787Z,92071.89
2018-09-29T05:09:13.085Z,92067.70
2018-09-29T05:11:43.367Z,92067.27
2018-09-29T05:14:13.632Z,92066.03
2018-09-29T05:16:43.950Z,92077.77
2018-09-29T05:19:14.232Z,92072.33
2018-09-29T05:21:44.608Z,92069.20
2018-09-29T05:24:14.894Z,92074.05
2018-09-29T05:26:45.216Z,92072.90
2018-09-29T05:29:15.473Z,92077.70
2018-09-29T05:31:45.964Z,92080.85
2018-09-29T05:34:16.279Z,92069.92
2018-09-29T05:36:46.550Z,92076.00
2018-09-29T05:39:17.332Z,92067.98
2018-09-29T05:41:47.639Z,92062.56
2018-09-29T05:44:18.267Z,92068.10
2018-09-29T05:46:48.529Z,92065.26
2018-09-29T05:49:18.822Z,92067.75
2018-09-29T05:51:49.139Z,92071.66
2018-09-29T05:54:19.521Z,92061.81
2018-09-29T05:58:13.888Z,92064.00
2018-09-29T06:00:44.178Z,92062.89
2018-09-29T06:03:14.475Z,92054.67
2018-09-29T06:05:44.856Z,92055.33
2018-09-29T06:08:15.429Z,92051.91
2018-09-29T06:10:45.696Z,92044.03
2018-09-29T06:13:16.560Z,92049.48
2018-09-29T06:15:47.040Z,92053.23
2018-09-29T06:18:17.336Z,92055.44
2018-09-29T06:20:47.663Z,92054.32
2018-09-29T06:23:18.140Z,92054.48
2018-09-29T06:25:48.414Z,92051.43
2018-09-29T06:28:18.719Z,92053.05
2018-09-29T06:30:49.225Z,92060.80
2018-09-29T06:35:54.767Z,92054.61
2018-09-29T06:38:25.046Z,92054.72
2018-09-29T06:40:55.475Z,92053.01
2018-09-29T06:43:25.921Z,92052.79
2018-09-29T06:45:56.293Z,92056.67
2018-09-29T06:48:26.553Z,92055.39
2018-09-29T06:50:56.890Z,92050.08
2018-09-29T06:53:27.305Z,92044.97
2018-09-29T06:55:57.725Z,92053.34
2018-09-29T06:58:27.990Z,92050.70
2018-09-29T07:00:58.348Z,92050.36
2018-09-29T07:03:28.613Z,92047.59
2018-09-29T07:05:59.668Z,92040.31
2018-09-29T07:08:29.943Z,92048.67
2018-09-29T07:11:00.272Z,92054.14
2018-09-29T07:13:30.585Z,92045.58
2018-09-29T07:16:00.924Z,92049.12
2018-09-29T07:18:31.822Z,92051.92
2018-09-29T07:21:02.144Z,92051.78
2018-09-29T07:23:32.495Z,92055.52
2018-09-29T07:26:02.769Z,92055.31
2018-09-29T07:28:33.120Z,92056.94
2018-09-29T07:31:03.408Z,92045.08
2018-09-29T07:33:33.706Z,92048.92
2018-09-29T07:36:04.137Z,92049.16
2018-09-29T07:38:34.474Z,92044.91
2018-09-29T07:41:04.790Z,92046.48
2018-09-29T07:43:35.159Z,92042.06
2018-09-29T07:46:05.549Z,92040.53
2018-09-29T07:48:36.811Z,92035.27
2018-09-29T07:51:07.275Z,92035.06
2018-09-29T07:53:37.991Z,92031.52
2018-09-29T07:56:08.435Z,92030.58
2018-09-29T07:58:38.911Z,92025.45
2018-09-29T08:01:09.221Z,92024.91
2018-09-29T08:03:39.557Z,92025.89
2018-09-29T08:06:09.896Z,92018.78
2018-09-29T08:08:40.196Z,92016.99
2018-09-29T08:11:10.872Z,92017.55
2018-09-29T08:13:41.265Z,92010.77
2018-09-29T08:16:11.629Z,92014.02
2018-09-29T08:18:41.963Z,92007.34
2018-09-29T08:21:12.304Z,92001.64
2018-09-29T08:23:42.624Z,92014.95
2018-09-29T08:26:13.421Z,92017.53
2018-09-29T08:28:43.692Z,92019.77
2018-09-29T08:31:13.992Z,92015.94
2018-09-29T08:33:44.306Z,92015.27
2018-09-29T08:36:14.564Z,92015.72
2018-09-29T08:38:44.873Z,92010.11
2018-09-29T08:41:15.287Z,92009.20
2018-09-29T08:43:45.573Z,92000.92
2018-09-29T08:46:15.880Z,91996.80
2018-09-29T08:48:46.214Z,92005.91
2018-09-29T08:51:16.493Z,92009.98
2018-09-29T08:53:46.835Z,92008.65
2018-09-29T08:56:17.466Z,92010.94
2018-09-29T08:58:47.760Z,92003.84
2018-09-29T09:01:18.708Z,92009.84
2018-09-29T09:03:49.967Z,92006.75
2018-09-29T09:06:20.851Z,92004.75
2018-09-29T09:08:51.721Z,92003.99
2018-09-29T09:11:22.718Z,92006.02
2018-09-29T09:13:53.544Z,92009.48
2018-09-29T09:16:24.454Z,92012.05
2018-09-29T09:18:55.309Z,92013.53
2018-09-29T09:21:26.218Z,92020.56
2018-09-29T09:23:57.163Z,92013.11
2018-09-29T09:26:28.754Z,92017.55
2018-09-29T09:28:59.848Z,92019.66
2018-09-29T09:31:30.740Z,92021.55
2018-09-29T09:34:01.604Z,92020.39
2018-09-29T09:36:32.493Z,92022.53
2018-09-29T09:39:04.672Z,92030.23
2018-09-29T09:41:35.628Z,92030.21
2018-09-29T09:44:06.766Z,92028.47
2018-09-29T09:46:38.506Z,92028.41
2018-09-29T09:49:09.333Z,92025.70
2018-09-29T09:51:40.222Z,92026.95
2018-09-29T09:54:11.074Z,92028.27
2018-09-29T09:56:42.496Z,92030.05
2018-09-29T09:59:13.774Z,92033.30
2018-09-29T10:03:54.301Z,92035.16
2018-09-29T10:06:25.241Z,92038.03
2018-09-29T10:08:56.354Z,92037.13
2018-09-29T10:11:27.249Z,92033.47
2018-09-29T10:13:58.442Z,92036.70
2018-09-29T10:16:29.297Z,92034.86
2018-09-29T10:19:00.143Z,92036.75
2018-09-29T10:21:30.976Z,92038.39
2018-09-29T10:24:01.943Z,92030.50
2018-09-29T10:26:32.769Z,92028.30
2018-09-29T10:29:04.130Z,92025.34
2018-09-29T10:31:34.963Z,92022.20
2018-09-29T10:34:05.883Z,92028.18
2018-09-29T10:36:36.703Z,92031.31
2018-09-29T10:39:10.196Z,92026.55
2018-09-29T10:41:41.607Z,92026.72
2018-09-29T10:44:13.258Z,92023.20
2018-09-29T10:46:44.313Z,92008.98
2018-09-29T10:49:15.186Z,92010.45
2018-09-29T10:51:46.508Z,92005.34
2018-09-29T10:54:17.428Z,92008.03
2018-09-29T10:56:48.416Z,92005.45
2018-09-29T10:59:19.389Z,92002.49
2018-09-29T11:01:50.264Z,91995.02
2018-09-29T11:04:21.136Z,91990.06
2018-09-29T11:06:53.593Z,91988.65
2018-09-29T11:09:24.498Z,91979.58
2018-09-29T11:11:55.334Z,91984.98
2018-09-29T11:14:26.360Z,91981.52
2018-09-29T11:16:57.415Z,91978.00
2018-09-29T11:19:28.287Z,91975.27
2018-09-29T11:21:59.124Z,91968.50
2018-09-29T11:24:29.997Z,91969.17
2018-09-29T11:27:00.902Z,91969.31
2018-09-29T11:29:31.824Z,91966.27
2018-09-29T11:32:02.692Z,91966.08
2018-09-29T11:34:33.577Z,91969.28
2018-09-29T11:37:04.433Z,91972.75
2018-09-29T11:39:35.377Z,91969.23
2018-09-29T11:42:06.222Z,91978.09
2018-09-29T11:44:37.145Z,91980.77
2018-09-29T11:47:08.016Z,91977.91
2018-09-29T11:49:38.894Z,91973.83
2018-09-29T11:52:09.737Z,91966.98
2018-09-29T11:54:40.596Z,91958.95
2018-09-29T11:57:11.528Z,91962.01
2018-09-29T11:59:42.444Z,91960.37
2018-09-29T12:02:13.465Z,91962.91
2018-09-29T12:04:44.656Z,91961.16
2018-09-29T12:07:15.596Z,91966.27
2018-09-29T12:09:46.591Z,91959.88
2018-09-29T12:12:17.441Z,91962.05
2018-09-29T12:14:48.405Z,91958.69
2018-09-29T12:17:19.267Z,91963.61
2018-09-29T12:19:50.123Z,91954.09
2018-09-29T12:22:21.026Z,91957.05
2018-09-29T12:24:52.049Z,91962.06
2018-09-29T12:27:24.920Z,91958.13
2018-09-29T12:29:54.518Z,91966.70
2018-09-29T12:32:25.566Z,91962.06
2018-09-29T12:34:56.473Z,91963.05
2018-09-29T12:37:27.402Z,91966.66
2018-09-29T12:39:58.436Z,91970.13
2018-09-29T12:42:29.279Z,91979.22
2018-09-29T12:45:00.254Z,91966.84
2018-09-29T12:47:31.332Z,91971.05
2018-09-29T12:50:02.207Z,91969.80
2018-09-29T12:52:33.038Z,91968.20
2018-09-29T12:55:03.943Z,91968.70
2018-09-29T12:57:34.875Z,91959.81
2018-09-29T13:00:06.366Z,91963.88
2018-09-29T13:02:37.216Z,91954.63
2018-09-29T13:05:08.245Z,91953.80
2018-09-29T13:07:39.305Z,91940.54
2018-09-29T13:10:10.213Z,91948.66
2018-09-29T13:12:41.147Z,91946.77
2018-09-29T13:15:12.080Z,91941.94
2018-09-29T13:17:43.148Z,91942.80
2018-09-29T13:20:14.061Z,91937.56
2018-09-29T13:22:44.939Z,91936.06
2018-09-29T13:25:16.034Z,91938.78
2018-09-29T13:27:49.104Z,91934.55
2018-09-29T13:30:20.067Z,91937.17
2018-09-29T13:32:50.893Z,91936.72
2018-09-29T13:35:21.767Z,91943.06
2018-09-29T13:37:52.608Z,91945.72
2018-09-29T13:40:23.467Z,91945.63
2018-09-29T13:42:54.318Z,91940.48
2018-09-29T13:45:25.245Z,91949.77
2018-09-29T13:47:56.087Z,91949.58
2018-09-29T13:50:26.949Z,91949.88
2018-09-29T13:52:57.805Z,91942.96
2018-09-29T13:55:28.667Z,91943.33
2018-09-29T13:57:59.624Z,91945.05
2018-09-29T14:00:30.569Z,91943.89
2018-09-29T14:03:01.435Z,91943.16
2018-09-29T14:05:32.300Z,91945.61
2018-09-29T14:08:03.114Z,91945.83
2018-09-29T14:10:33.969Z,91953.88
2018-09-29T14:13:05.451Z,91952.73
2018-09-29T14:15:36.659Z,91961.97
2018-09-29T14:18:07.516Z,91958.14
2018-09-29T14:20:38.377Z,91964.83
2018-09-29T14:23:09.221Z,91955.55
2018-09-29T14:25:40.213Z,91954.02
2018-09-29T14:28:11.049Z,91965.97
2018-09-29T14:30:46.185Z,91966.31
2018-09-29T14:33:18.942Z,91973.98
2018-09-29T14:35:49.821Z,91966.62
2018-09-29T14:38:20.667Z,91979.20
2018-09-29T14:40:51.643Z,91983.89
2018-09-29T14:43:22.488Z,91980.87
2018-09-29T14:45:53.410Z,91977.53
2018-09-29T14:48:24.301Z,91976.08
2018-09-29T14:50:55.265Z,91976.04
2018-09-29T14:53:26.128Z,91982.05
2018-09-29T14:55:57.057Z,91980.82
2018-09-29T14:58:28.099Z,91978.23
2018-09-29T15:00:59.163Z,91973.99
2018-09-29T15:03:30.037Z,91976.48
2018-09-29T15:06:01.011Z,91974.26
2018-09-29T15:08:32.072Z,91972.77
2018-09-29T15:11:02.947Z,91972.28
2018-09-29T15:13:33.773Z,91970.48
2018-09-29T15:16:05.113Z,91968.41
2018-09-29T15:18:35.945Z,91962.55
2018-09-29T15:21:07.025Z,91963.31
2018-09-29T15:23:37.885Z,91968.44
2018-09-29T15:26:08.902Z,91975.42
2018-09-29T15:28:39.876Z,91976.45
2018-09-29T15:31:10.894Z,91981.56
2018-09-29T15:33:41.738Z,91977.24
2018-09-29T15:36:12.640Z,91981.81
2018-09-29T15:38:43.472Z,91979.87
2018-09-29T15:41:14.355Z,91982.16
2018-09-29T15:43:47.710Z,91986.61
2018-09-29T15:46:18.728Z,91982.06
2018-09-29T15:48:49.615Z,91989.17
2018-09-29T15:51:20.676Z,91991.91
2018-09-29T15:53:51.588Z,91999.43
2018-09-29T15:56:22.459Z,91994.83
2018-09-29T15:58:53.389Z,92001.28
2018-09-29T16:01:24.336Z,92005.45
2018-09-29T16:03:55.187Z,91998.86
2018-09-29T16:06:26.073Z,92002.91
2018-09-29T16:08:57.057Z,92002.39
2018-09-29T16:11:28.129Z,92002.92
2018-09-29T16:13:58.976Z,92000.91
2018-09-29T16:16:29.898Z,92001.67
2018-09-29T16:19:00.761Z,91997.93
2018-09-29T16:21:31.689Z,91999.61
2018-09-29T16:24:02.701Z,92003.73
2018-09-29T16:26:33.580Z,92010.02
2018-09-29T16:29:04.438Z,92012.23
2018-09-29T16:31:35.377Z,92018.53
2018-09-29T16:34:06.225Z,92015.77
2018-09-29T16:36:37.531Z,92019.49
2018-09-29T16:39:11.832Z,92024.91
2018-09-29T16:41:43.119Z,92023.89
2018-09-29T16:44:13.976Z,92029.03
2018-09-29T16:46:44.922Z,92032.02
2018-09-29T16:49:15.780Z,92036.16
2018-09-29T16:51:46.686Z,92041.05
2018-09-29T16:54:17.570Z,92048.66
2018-09-29T16:56:48.944Z,92040.36
2018-09-29T16:59:19.904Z,92055.84
2018-09-29T17:01:50.864Z,92057.13
2018-09-29T17:04:21.742Z,92060.96
2018-09-29T17:06:52.864Z,92071.05
2018-09-29T17:09:23.760Z,92071.90
2018-09-29T17:11:54.653Z,92076.38
2018-09-29T17:14:25.504Z,92085.00
2018-09-29T17:16:56.452Z,92086.12
2018-09-29T17:19:27.958Z,92092.21
2018-09-29T17:21:59.067Z,92091.75
2018-09-29T17:24:30.164Z,92090.09
2018-09-29T17:27:01.073Z,92098.72
2018-09-29T17:29:31.938Z,92105.53
2018-09-29T17:32:03.200Z,92106.39
2018-09-29T17:34:34.095Z,92109.61
2018-09-29T17:37:05.217Z,92112.29
2018-09-29T17:39:36.105Z,92112.55
2018-09-29T17:42:07.048Z,92117.42
2018-09-29T17:44:37.935Z,92116.77
2018-09-29T17:47:08.899Z,92121.98
2018-09-29T17:49:39.767Z,92119.72
2018-09-29T17:52:10.700Z,92122.49
2018-09-29T17:54:41.575Z,92127.38
2018-09-29T17:57:12.772Z,92128.42
2018-09-29T17:59:51.944Z,92144.17
2018-09-29T18:02:22.863Z,92144.81
2018-09-29T18:04:53.731Z,92143.91
2018-09-29T18:07:24.861Z,92145.32
2018-09-29T18:09:56.067Z,92152.64
2018-09-29T18:12:27.081Z,92160.33
2018-09-29T18:14:57.990Z,92160.17
2018-09-29T18:17:28.929Z,92154.50
2018-09-29T18:19:59.888Z,92159.91
2018-09-29T18:22:30.885Z,92163.91
2018-09-29T18:25:01.844Z,92170.76
2018-09-29T18:27:37.831Z,92168.26
2018-09-29T18:30:09.213Z,92176.36
2018-09-29T18:32:40.093Z,92172.55
2018-09-29T18:35:10.979Z,92173.52
2018-09-29T18:37:41.875Z,92175.36
2018-09-29T18:40:12.805Z,92175.69
2018-09-29T18:42:44.103Z,92182.50
2018-09-29T18:45:15.060Z,92177.69
2018-09-29T18:47:46.382Z,92185.25
2018-09-29T18:50:17.631Z,92185.40
2018-09-29T18:52:48.898Z,92188.67
2018-09-29T18:55:20.216Z,92184.66
2018-09-29T18:57:51.316Z,92193.20
2018-09-29T19:00:22.315Z,92195.49
2018-09-29T19:02:53.245Z,92200.99
2018-09-29T19:05:24.122Z,92204.94
2018-09-29T19:07:55.118Z,92204.63
2018-09-29T19:10:26.073Z,92209.56
2018-09-29T19:12:57.083Z,92208.61
2018-09-29T19:15:28.178Z,92204.97
2018-09-29T19:17:59.096Z,92213.77
2018-09-29T19:20:29.986Z,92216.39
2018-09-29T19:23:01.029Z,92205.77
2018-09-29T19:25:31.917Z,92213.12
2018-09-29T19:28:02.944Z,92219.57
2018-09-29T19:30:33.869Z,92216.91
2018-09-29T19:33:04.794Z,92209.72
2018-09-29T19:35:35.786Z,92224.77
2018-09-29T19:38:06.738Z,92222.00
2018-09-29T19:40:37.818Z,92226.03
2018-09-29T19:43:08.774Z,92228.23
2018-09-29T19:45:39.729Z,92227.88
2018-09-29T19:48:10.795Z,92233.55
2018-09-29T19:50:41.712Z,92227.31
2018-09-29T19:53:12.655Z,92226.81
2018-09-29T19:55:43.541Z,92234.06
2018-09-29T19:58:14.507Z,92230.30
2018-09-29T20:00:50.498Z,92240.32
2018-09-29T20:03:26.328Z,92238.02
2018-09-29T20:06:02.245Z,92239.61
2018-09-29T20:08:38.141Z,92240.32
2018-09-29T20:11:14.354Z,92243.91
2018-09-29T20:13:50.093Z,92237.39
2018-09-29T20:16:26.032Z,92238.70
2018-09-29T20:19:02.079Z,92242.86
2018-09-29T20:21:38.089Z,92241.72
2018-09-29T20:24:14.204Z,92238.48
2018-09-29T20:26:50.095Z,92240.33
2018-09-29T20:29:25.939Z,92239.24
2018-09-29T20:33:26.144Z,92239.95
2018-09-29T20:36:02.198Z,92243.92
2018-09-29T20:38:37.864Z,92248.19
2018-09-29T20:41:13.730Z,92242.77
2018-09-29T20:43:49.559Z,92245.56
2018-09-29T20:46:25.525Z,92236.56
2018-09-29T20:49:01.362Z,92235.34
2018-09-29T20:51:37.494Z,92231.56
2018-09-29T20:54:13.435Z,92236.84
2018-09-29T20:56:50.385Z,92240.43
2018-09-29T20:59:26.163Z,92240.29
2018-09-29T21:02:02.168Z,92236.46
2018-09-29T21:04:38.016Z,92232.70
2018-09-29T21:07:13.896Z,92228.38
2018-09-29T21:09:49.721Z,92229.16
2018-09-29T21:12:25.601Z,92237.52
2018-09-29T21:15:01.424Z,92238.08
2018-09-29T21:17:37.339Z,92240.72
2018-09-29T21:20:13.225Z,92240.55
2018-09-29T21:22:49.096Z,92240.68
2018-09-29T21:25:25.162Z,92248.14
2018-09-29T21:28:01.173Z,92241.75
2018-09-29T21:30:37.044Z,92241.00
2018-09-29T21:33:13.368Z,92245.79
2018-09-29T21:35:49.236Z,92249.19
2018-09-29T21:38:25.143Z,92247.58
2018-09-29T21:41:01.008Z,92254.80
2018-09-29T21:43:37.008Z,92253.16
2018-09-29T21:46:12.824Z,92250.69
2018-09-29T21:48:49.032Z,92250.58
2018-09-29T21:51:24.912Z,92249.34
2018-09-29T21:54:01.083Z,92248.98
2018-09-29T21:56:37.530Z,92246.94
2018-09-29T21:59:13.559Z,92252.33
2018-09-29T22:01:49.413Z,92254.38
2018-09-29T22:04:25.520Z,92257.42
2018-09-29T22:08:25.502Z,92256.48
2018-09-29T22:11:01.407Z,92259.95
2018-09-29T22:13:37.200Z,92252.48
2018-09-29T22:16:13.057Z,92242.50
2018-09-29T22:18:49.141Z,92252.75
2018-09-29T22:21:29.299Z,92253.76
2018-09-29T22:24:05.248Z,92248.81
2018-09-29T22:26:44.005Z,92250.52
2018-09-29T22:29:19.811Z,92249.77
2018-09-29T22:31:55.739Z,92248.20
2018-09-29T22:34:31.856Z,92248.30
2018-09-29T22:37:08.037Z,92247.09
2018-09-29T22:39:43.800Z,92247.77
2018-09-29T22:42:19.652Z,92243.66
2018-09-29T22:44:57.176Z,92246.35
2018-09-29T22:47:33.179Z,92246.35
2018-09-29T22:50:09.017Z,92254.58
2018-09-29T22:52:44.931Z,92257.27
2018-09-29T22:55:20.752Z,92263.47
2018-09-29T22:57:56.643Z,92265.64
2018-09-29T23:00:33.334Z,92260.16
2018-09-29T23:03:09.274Z,92258.02
2018-09-29T23:05:45.301Z,92261.42
2018-09-29T23:08:21.985Z,92259.73
2018-09-29T23:10:57.902Z,92259.80
2018-09-29T23:13:33.743Z,92262.03
2018-09-29T23:16:10.091Z,92270.86
2018-09-29T23:18:45.968Z,92284.33
2018-09-29T23:21:21.845Z,92284.31
2018-09-29T23:23:57.767Z,92286.72
2018-09-29T23:26:33.854Z,92273.02
2018-09-29T23:29:09.970Z,92274.99
2018-09-29T23:31:45.787Z,92285.09
2018-09-29T23:34:21.657Z,92292.09
2018-09-29T23:36:57.492Z,92296.62
2018-09-29T23:39:33.370Z,92295.44
2018-09-29T23:42:09.185Z,92298.13
2018-09-29T23:44:45.036Z,92300.86
2018-09-29T23:47:20.939Z,92290.42
2018-09-29T23:49:56.887Z,92296.34
2018-09-29T23:52:32.711Z,92292.72
2018-09-29T23:55:08.527Z,92300.30
2018-09-29T23:57:44.365Z,92302.36
